createdAt,value
2018-10-02T00:01:55.441Z,6.67
2018-10-02T00:04:24.468Z,6.50
2018-10-02T00:06:53.668Z,8.03
2018-10-02T00:09:22.880Z,6.75
2018-10-02T00:11:57.519Z,7.15
2018-10-02T00:14:30.316Z,7.97
2018-10-02T00:16:59.826Z,6.12
2018-10-02T00:19:29.355Z,6.58
2018-10-02T00:21:59.430Z,6.20
2018-10-02T00:24:28.734Z,7.97
2018-10-02T00:26:58.287Z,6.97
2018-10-02T00:29:27.649Z,6.25
2018-10-02T00:31:56.965Z,6.15
2018-10-02T00:34:26.385Z,5.55
2018-10-02T00:36:55.451Z,5.35
2018-10-02T00:39:24.725Z,6.87
2018-10-02T00:41:53.756Z,5.92
2018-10-02T00:44:22.804Z,5.03
2018-10-02T00:46:51.810Z,5.08
2018-10-02T00:49:20.838Z,5.62
2018-10-02T00:51:50.139Z,5.58
2018-10-02T00:54:19.116Z,3.95
2018-10-02T00:56:48.123Z,4.00
2018-10-02T00:59:17.402Z,4.03
2018-10-02T01:01:46.629Z,3.85
2018-10-02T01:04:15.637Z,3.58
2018-10-02T01:06:44.700Z,3.70
2018-10-02T01:09:13.923Z,3.65
2018-10-02T01:11:43.612Z,3.30
2018-10-02T01:14:13.039Z,3.17
2018-10-02T01:16:42.104Z,3.40
2018-10-02T01:19:11.186Z,3.60
2018-10-02T01:21:40.262Z,2.52
2018-10-02T01:24:09.223Z,2.85
2018-10-02T01:26:38.440Z,2.30
2018-10-02T01:29:07.609Z,3.52
2018-10-02T01:31:36.587Z,2.95
2018-10-02T01:34:05.856Z,3.08
2018-10-02T01:36:34.970Z,2.70
2018-10-02T01:39:05.420Z,2.33
2018-10-02T01:41:34.445Z,2.70
2018-10-02T01:44:03.503Z,2.83
2018-10-02T01:46:32.592Z,2.60
2018-10-02T01:49:01.551Z,3.90
2018-10-02T01:51:30.628Z,3.12
2018-10-02T01:53:59.872Z,3.40
2018-10-02T01:56:29.037Z,2.62
2018-10-02T01:58:58.623Z,3.25
2018-10-02T02:01:27.637Z,2.87
2018-10-02T02:03:56.962Z,3.47
2018-10-02T02:06:25.967Z,3.65
2018-10-02T02:08:55.048Z,4.05
2018-10-02T02:11:24.012Z,4.45
2018-10-02T02:13:53.143Z,5.10
2018-10-02T02:16:22.113Z,4.95
2018-10-02T02:18:51.420Z,5.20
2018-10-02T02:21:20.446Z,5.92
2018-10-02T02:23:49.413Z,5.75
2018-10-02T02:26:18.398Z,5.70
2018-10-02T02:28:47.532Z,5.20
2018-10-02T02:31:16.678Z,6.28
2018-10-02T02:33:45.765Z,6.42
2018-10-02T02:36:14.828Z,6.67
2018-10-02T02:38:43.798Z,6.62
2018-10-02T02:41:12.783Z,6.10
2018-10-02T02:43:41.793Z,6.08
2018-10-02T02:46:10.779Z,5.58
2018-10-02T02:48:44.972Z,5.65
2018-10-02T02:51:21.135Z,5.75
2018-10-02T02:53:50.238Z,6.42
2018-10-02T02:56:19.206Z,6.03
2018-10-02T02:58:48.485Z,7.08
2018-10-02T03:01:17.516Z,5.75
2018-10-02T03:03:46.569Z,6.40
2018-10-02T03:06:15.857Z,7.33
2018-10-02T03:08:44.982Z,6.95
2018-10-02T03:11:13.969Z,6.60
2018-10-02T03:13:43.572Z,7.08
2018-10-02T03:16:12.673Z,6.97
2018-10-02T03:18:41.758Z,6.67
2018-10-02T03:21:10.793Z,6.10
2018-10-02T03:23:39.833Z,6.10
2018-10-02T03:26:09.220Z,7.35
2018-10-02T03:28:38.568Z,5.90
2018-10-02T03:31:07.714Z,7.20
2018-10-02T03:33:36.732Z,6.17
2018-10-02T03:36:06.005Z,6.85
2018-10-02T03:38:35.062Z,5.72
2018-10-02T03:41:04.309Z,6.30
2018-10-02T03:43:33.509Z,7.37
2018-10-02T03:46:02.782Z,6.40
2018-10-02T03:48:31.975Z,6.60
2018-10-02T03:51:01.267Z,6.45
2018-10-02T03:53:30.330Z,5.83
2018-10-02T03:55:59.687Z,5.67
2018-10-02T03:58:28.698Z,5.00
2018-10-02T04:00:57.818Z,4.75
2018-10-02T04:03:27.050Z,5.55
2018-10-02T04:05:56.055Z,5.72
2018-10-02T04:08:25.139Z,5.00
2018-10-02T04:10:54.187Z,4.90
2018-10-02T04:13:23.403Z,4.90
2018-10-02T04:15:52.789Z,5.12
2018-10-02T04:18:21.817Z,4.62
2018-10-02T04:20:51.061Z,4.00
2018-10-02T04:23:20.505Z,4.30
2018-10-02T04:25:49.839Z,6.75
2018-10-02T04:28:18.999Z,5.55
2018-10-02T04:30:48.128Z,5.28
2018-10-02T04:33:17.296Z,5.05
2018-10-02T04:35:46.485Z,4.78
2018-10-02T04:38:15.531Z,5.05
2018-10-02T04:40:44.545Z,5.33
2018-10-02T04:43:13.598Z,6.55
2018-10-02T04:45:42.756Z,6.05
2018-10-02T04:48:11.750Z,4.72
2018-10-02T04:50:40.703Z,6.90
2018-10-02T04:53:09.688Z,6.90
2018-10-02T04:55:38.716Z,8.30
2018-10-02T04:58:07.816Z,6.37
2018-10-02T05:00:36.775Z,6.53
2018-10-02T05:03:05.744Z,5.90
2018-10-02T05:05:34.700Z,7.15
2018-10-02T05:08:03.775Z,7.10
2018-10-02T05:10:32.750Z,7.12
2018-10-02T05:13:01.671Z,10.00
2018-10-02T05:15:31.967Z,6.92
2018-10-02T05:18:00.974Z,7.03
2018-10-02T05:20:29.972Z,7.12
2018-10-02T05:22:59.047Z,7.95
2018-10-02T05:25:28.240Z,6.58
2018-10-02T05:27:57.203Z,5.95
2018-10-02T05:30:26.142Z,6.78
2018-10-02T05:32:55.465Z,6.40
2018-10-02T05:35:24.369Z,6.15
2018-10-02T05:37:53.712Z,5.90
2018-10-02T05:40:22.701Z,5.90
2018-10-02T05:42:51.765Z,6.33
2018-10-02T05:45:20.812Z,6.35
2018-10-02T05:47:50.604Z,5.85
2018-10-02T05:50:19.533Z,6.55
2018-10-02T05:52:48.527Z,6.50
2018-10-02T05:55:17.494Z,6.15
2018-10-02T05:57:46.585Z,7.25
2018-10-02T06:00:15.641Z,5.95
2018-10-02T06:02:44.692Z,5.95
2018-10-02T06:05:13.616Z,6.40
2018-10-02T06:07:42.876Z,6.40
2018-10-02T06:10:11.881Z,5.30
2018-10-02T06:12:40.911Z,5.05
2018-10-02T06:15:10.100Z,4.40
2018-10-02T06:17:39.002Z,4.83
2018-10-02T06:20:08.012Z,5.70
2018-10-02T06:22:36.990Z,5.17
2018-10-02T06:25:06.097Z,4.65
2018-10-02T06:27:34.959Z,5.25
2018-10-02T06:30:04.148Z,6.33
2018-10-02T06:32:33.308Z,5.67
2018-10-02T06:35:02.201Z,6.85
2018-10-02T06:37:31.239Z,5.25
2018-10-02T06:40:00.356Z,7.22
2018-10-02T06:42:29.248Z,7.37
2018-10-02T06:44:58.399Z,6.33
2018-10-02T06:47:27.329Z,6.72
2018-10-02T06:49:56.230Z,6.70
2018-10-02T06:52:25.340Z,7.58
2018-10-02T06:54:54.114Z,6.45
2018-10-02T06:57:23.115Z,7.10
2018-10-02T06:59:53.140Z,6.95
2018-10-02T07:02:22.365Z,5.55
2018-10-02T07:04:51.214Z,6.58
2018-10-02T07:07:20.119Z,6.50
2018-10-02T07:09:48.995Z,6.15
2018-10-02T07:12:17.921Z,5.80
2018-10-02T07:14:46.925Z,5.50
2018-10-02T07:17:16.038Z,4.78
2018-10-02T07:19:44.968Z,5.85
2018-10-02T07:22:13.911Z,7.00
2018-10-02T07:24:42.816Z,6.28
2018-10-02T07:27:12.058Z,6.05
2018-10-02T07:29:40.887Z,6.00
2018-10-02T07:32:09.850Z,5.10
2018-10-02T07:34:38.982Z,5.70
2018-10-02T07:37:08.070Z,5.67
2018-10-02T07:39:36.982Z,5.50
2018-10-02T07:42:05.977Z,6.30
2018-10-02T07:44:35.632Z,5.70
2018-10-02T07:47:05.120Z,5.60
2018-10-02T07:49:34.079Z,4.83
2018-10-02T07:52:03.218Z,6.50
2018-10-02T07:54:32.344Z,4.87
2018-10-02T07:57:01.288Z,5.67
2018-10-02T07:59:30.243Z,5.00
2018-10-02T08:01:59.149Z,5.33
2018-10-02T08:04:28.115Z,4.67
2018-10-02T08:06:57.189Z,6.50
2018-10-02T08:09:26.308Z,5.47
2018-10-02T08:11:55.513Z,4.20
2018-10-02T08:14:24.531Z,3.72
2018-10-02T08:16:53.718Z,3.42
2018-10-02T08:19:22.946Z,3.05
2018-10-02T08:21:51.864Z,2.83
2018-10-02T08:24:20.796Z,3.60
2018-10-02T08:26:50.089Z,4.10
2018-10-02T08:29:19.255Z,3.70
2018-10-02T08:31:48.211Z,3.27
2018-10-02T08:34:17.099Z,3.90
2018-10-02T08:36:46.031Z,2.98
2018-10-02T08:39:14.910Z,3.55
2018-10-02T08:41:43.823Z,2.60
2018-10-02T08:44:12.872Z,3.47
2018-10-02T08:46:41.796Z,2.35
2018-10-02T08:49:10.761Z,2.72
2018-10-02T08:51:39.859Z,3.40
2018-10-02T08:54:09.066Z,2.47
2018-10-02T08:56:38.554Z,2.42
2018-10-02T08:59:08.279Z,3.50
2018-10-02T09:01:37.262Z,2.77
2018-10-02T09:04:06.387Z,2.50
2018-10-02T09:06:35.427Z,2.83
2018-10-02T09:09:06.732Z,2.72
2018-10-02T09:11:35.756Z,3.22
2018-10-02T09:14:04.737Z,3.62
2018-10-02T09:16:33.836Z,2.50
2018-10-02T09:19:02.859Z,3.37
2018-10-02T09:21:32.144Z,3.20
2018-10-02T09:24:01.112Z,3.70
2018-10-02T09:26:30.274Z,4.10
2018-10-02T09:28:59.157Z,2.62
2018-10-02T09:31:33.384Z,2.98
2018-10-02T09:34:07.338Z,2.90
2018-10-02T09:36:41.830Z,3.02
2018-10-02T09:39:15.988Z,2.83
2018-10-02T09:41:50.501Z,3.47
2018-10-02T09:44:19.379Z,3.90
2018-10-02T09:46:48.329Z,3.15
2018-10-02T09:49:17.504Z,3.40
2018-10-02T09:51:46.415Z,2.67
2018-10-02T09:54:15.325Z,3.00
2018-10-02T09:56:45.347Z,3.60
2018-10-02T09:59:15.612Z,3.55
2018-10-02T10:01:49.826Z,3.22
2018-10-02T10:04:18.988Z,3.52
2018-10-02T10:06:47.928Z,2.55
2018-10-02T10:09:17.220Z,2.80
2018-10-02T10:11:46.121Z,3.20
2018-10-02T10:14:15.035Z,2.50
2018-10-02T10:16:44.076Z,3.30
2018-10-02T10:19:12.977Z,3.87
2018-10-02T10:21:42.295Z,2.55
2018-10-02T10:24:11.258Z,2.87
2018-10-02T10:26:40.201Z,2.25
2018-10-02T10:29:09.241Z,2.70
2018-10-02T10:31:38.698Z,2.20
2018-10-02T10:34:07.835Z,2.47
2018-10-02T10:36:36.892Z,1.98
2018-10-02T10:39:07.956Z,2.72
2018-10-02T10:41:36.915Z,2.77
2018-10-02T10:44:06.095Z,2.00
2018-10-02T10:46:35.552Z,2.02
2018-10-02T10:49:04.463Z,1.85
2018-10-02T10:51:33.372Z,1.80
2018-10-02T10:54:02.548Z,1.45
2018-10-02T10:56:31.703Z,3.15
2018-10-02T10:59:00.662Z,1.40
2018-10-02T11:01:29.630Z,1.62
2018-10-02T11:03:58.491Z,1.70
2018-10-02T11:06:27.440Z,1.60
2018-10-02T11:08:56.376Z,1.42
2018-10-02T11:11:25.260Z,1.10
2018-10-02T11:13:54.159Z,1.12
2018-10-02T11:16:23.233Z,1.15
2018-10-02T11:18:52.191Z,1.40
2018-10-02T11:21:21.384Z,1.27
2018-10-02T11:23:50.308Z,1.05
2018-10-02T11:26:19.195Z,1.60
2018-10-02T11:28:48.194Z,1.17
2018-10-02T11:31:17.553Z,1.80
2018-10-02T11:33:46.739Z,1.25
2018-10-02T11:36:15.659Z,1.60
2018-10-02T11:38:44.599Z,1.10
2018-10-02T11:41:13.550Z,1.10
2018-10-02T11:43:42.584Z,1.50
2018-10-02T11:46:11.544Z,1.40
2018-10-02T11:48:40.429Z,1.60
2018-10-02T11:51:09.375Z,1.27
2018-10-02T11:53:38.291Z,1.92
2018-10-02T11:56:07.300Z,1.50
2018-10-02T11:58:36.558Z,1.77
2018-10-02T12:01:05.733Z,1.30
2018-10-02T12:03:34.725Z,1.22
2018-10-02T12:06:03.611Z,1.40
2018-10-02T12:08:32.562Z,1.30
2018-10-02T12:11:01.504Z,1.00
2018-10-02T12:13:30.505Z,1.47
2018-10-02T12:15:59.432Z,1.85
2018-10-02T12:18:28.499Z,2.35
2018-10-02T12:20:57.463Z,2.30
2018-10-02T12:23:26.513Z,1.82
2018-10-02T12:25:55.639Z,1.85
2018-10-02T12:28:24.681Z,1.77
2018-10-02T12:30:53.627Z,1.40
2018-10-02T12:33:22.539Z,1.80
2018-10-02T12:35:51.491Z,2.30
2018-10-02T12:38:20.465Z,1.72
2018-10-02T12:40:49.378Z,1.42
2018-10-02T12:43:18.265Z,1.80
2018-10-02T12:45:47.214Z,1.65
2018-10-02T12:48:16.120Z,1.98
2018-10-02T12:50:45.064Z,1.00
2018-10-02T12:53:14.256Z,2.42
2018-10-02T12:55:43.315Z,2.10
2018-10-02T12:58:12.201Z,1.72
2018-10-02T13:00:41.173Z,1.95
2018-10-02T13:03:10.098Z,1.90
2018-10-02T13:05:39.051Z,2.30
2018-10-02T13:08:08.169Z,2.15
2018-10-02T13:10:37.525Z,1.62
2018-10-02T13:13:06.854Z,1.90
2018-10-02T13:15:36.313Z,1.80
2018-10-02T13:18:06.750Z,1.60
2018-10-02T13:20:36.146Z,1.30
2018-10-02T13:23:06.200Z,2.10
2018-10-02T13:25:35.210Z,1.07
2018-10-02T13:28:04.293Z,1.00
2018-10-02T13:30:33.343Z,1.05
2018-10-02T13:33:02.401Z,1.32
2018-10-02T13:35:31.575Z,1.35
2018-10-02T13:38:00.617Z,1.00
2018-10-02T13:40:30.855Z,1.30
2018-10-02T13:43:01.783Z,1.55
2018-10-02T13:45:31.729Z,0.95
2018-10-02T13:48:00.963Z,1.70
2018-10-02T13:50:30.322Z,1.42
2018-10-02T13:52:59.933Z,1.10
2018-10-02T13:55:29.500Z,0.95
2018-10-02T13:57:58.472Z,1.50
2018-10-02T14:00:27.864Z,1.00
2018-10-02T14:02:56.849Z,1.10
2018-10-02T14:05:25.856Z,1.27
2018-10-02T14:07:54.958Z,2.55
2018-10-02T14:10:23.918Z,1.67
2018-10-02T14:12:53.043Z,1.17
2018-10-02T14:15:22.136Z,1.75
2018-10-02T14:17:51.101Z,1.50
2018-10-02T14:20:20.290Z,1.07
2018-10-02T14:22:49.627Z,1.20
2018-10-02T14:25:18.969Z,1.42
2018-10-02T14:27:47.912Z,1.20
2018-10-02T14:30:16.976Z,1.75
2018-10-02T14:32:46.273Z,1.30
2018-10-02T14:35:15.552Z,1.55
2018-10-02T14:37:44.664Z,1.57
2018-10-02T14:40:13.696Z,1.47
2018-10-02T14:42:43.150Z,1.72
2018-10-02T14:45:12.543Z,2.27
2018-10-02T14:47:41.748Z,2.77
2018-10-02T14:50:11.303Z,2.27
2018-10-02T14:52:40.358Z,2.17
2018-10-02T14:55:09.569Z,2.40
2018-10-02T14:57:39.135Z,2.33
2018-10-02T15:00:08.411Z,2.37
2018-10-02T15:02:37.505Z,2.05
2018-10-02T15:05:06.529Z,2.15
2018-10-02T15:07:35.870Z,2.65
2018-10-02T15:10:05.049Z,1.92
2018-10-02T15:12:34.205Z,2.40
2018-10-02T15:15:03.381Z,2.45
2018-10-02T15:17:32.534Z,3.83
2018-10-02T15:20:02.739Z,2.80
2018-10-02T15:22:31.848Z,2.42
2018-10-02T15:25:00.840Z,2.10
2018-10-02T15:27:29.924Z,2.72
2018-10-02T15:29:59.101Z,2.47
2018-10-02T15:32:28.244Z,3.33
2018-10-02T15:34:57.345Z,2.27
2018-10-02T15:37:26.696Z,3.60
2018-10-02T15:39:55.970Z,3.22
2018-10-02T15:42:25.352Z,3.35
2018-10-02T15:44:54.562Z,2.77
2018-10-02T15:47:23.614Z,2.80
2018-10-02T15:49:52.794Z,2.00
2018-10-02T15:52:22.675Z,2.50
2018-10-02T15:54:51.804Z,2.52
2018-10-02T15:57:20.845Z,2.50
2018-10-02T15:59:50.188Z,2.65
2018-10-02T16:02:19.684Z,2.45
2018-10-02T16:04:48.879Z,3.20
2018-10-02T16:07:18.425Z,2.65
2018-10-02T16:09:47.809Z,3.37
2018-10-02T16:12:17.523Z,3.00
2018-10-02T16:14:46.971Z,3.05
2018-10-02T16:17:16.818Z,2.60
2018-10-02T16:19:46.300Z,2.77
2018-10-02T16:22:15.622Z,2.98
2018-10-02T16:24:45.715Z,3.08
2018-10-02T16:27:15.128Z,7.78
2018-10-02T16:29:44.500Z,2.70
2018-10-02T16:32:13.584Z,2.35
2018-10-02T16:34:49.288Z,3.47
2018-10-02T16:37:12.123Z,3.08
2018-10-02T16:39:42.357Z,2.45
2018-10-02T16:42:12.009Z,2.55
2018-10-02T16:44:41.173Z,3.85
2018-10-02T16:47:10.416Z,3.05
2018-10-02T16:49:39.834Z,3.15
2018-10-02T16:52:09.313Z,2.80
2018-10-02T16:54:38.811Z,3.02
2018-10-02T16:57:08.752Z,3.92
2018-10-02T16:59:38.189Z,3.15
2018-10-02T17:02:07.601Z,2.83
2018-10-02T17:04:36.947Z,2.92
2018-10-02T17:07:06.568Z,2.75
2018-10-02T17:09:35.973Z,3.10
2018-10-02T17:12:05.326Z,2.12
2018-10-02T17:14:34.720Z,2.70
2018-10-02T17:17:04.181Z,3.33
2018-10-02T17:19:33.427Z,2.70
2018-10-02T17:22:17.611Z,3.52
2018-10-02T17:24:47.002Z,3.27
2018-10-02T17:27:16.388Z,2.67
2018-10-02T17:29:45.837Z,3.70
2018-10-02T17:32:15.493Z,3.20
2018-10-02T17:34:45.238Z,3.77
2018-10-02T17:37:14.732Z,3.65
2018-10-02T17:39:44.116Z,2.70
2018-10-02T17:42:13.711Z,3.20
2018-10-02T17:44:43.845Z,3.40
2018-10-02T17:47:12.989Z,2.85
2018-10-02T17:49:44.735Z,2.72
2018-10-02T17:52:15.268Z,3.30
2018-10-02T17:54:46.465Z,2.65
2018-10-02T17:57:17.829Z,3.58
2018-10-02T17:59:48.106Z,3.17
2018-10-02T18:02:18.628Z,2.15
2018-10-02T18:04:47.928Z,2.50
2018-10-02T18:07:17.323Z,3.20
2018-10-02T18:09:49.936Z,3.60
2018-10-02T18:12:21.792Z,3.20
2018-10-02T18:14:51.166Z,2.98
2018-10-02T18:17:21.762Z,2.75
2018-10-02T18:19:51.325Z,2.20
2018-10-02T18:22:20.408Z,2.55
2018-10-02T18:24:49.504Z,2.10
2018-10-02T18:27:19.367Z,2.50
2018-10-02T18:29:48.549Z,2.77
2018-10-02T18:32:17.569Z,2.40
2018-10-02T18:34:46.809Z,2.67
2018-10-02T18:37:16.921Z,3.05
2018-10-02T18:39:46.125Z,3.10
2018-10-02T18:42:15.611Z,2.80
2018-10-02T18:44:44.793Z,2.60
2018-10-02T18:47:14.535Z,2.47
2018-10-02T18:49:43.820Z,2.87
2018-10-02T18:52:12.910Z,2.20
2018-10-02T18:54:41.853Z,3.47
2018-10-02T18:57:10.907Z,2.35
2018-10-02T18:59:40.865Z,2.60
2018-10-02T19:02:10.168Z,1.85
2018-10-02T19:04:39.477Z,1.65
2018-10-02T19:07:08.450Z,1.60
2018-10-02T19:09:37.424Z,1.92
2018-10-02T19:12:13.682Z,2.10
2018-10-02T19:14:42.954Z,1.92
2018-10-02T19:17:12.003Z,2.90
2018-10-02T19:19:46.427Z,4.65
2018-10-02T19:22:15.683Z,6.15
2018-10-02T19:24:44.933Z,10.28
2018-10-02T19:27:14.186Z,6.37
2018-10-02T19:29:43.263Z,6.30
2018-10-02T19:32:17.152Z,3.20
2018-10-02T19:34:46.652Z,3.17
2018-10-02T19:37:21.158Z,2.42
2018-10-02T19:39:50.418Z,2.62
2018-10-02T19:42:19.583Z,2.80
2018-10-02T19:44:48.802Z,2.85
2018-10-02T19:47:18.236Z,2.42
2018-10-02T19:49:47.329Z,1.90
2018-10-02T19:52:17.327Z,2.37
2018-10-02T19:54:47.622Z,1.82
2018-10-02T19:57:19.010Z,2.67
2018-10-02T19:59:48.028Z,2.42
2018-10-02T20:02:16.936Z,3.10
2018-10-02T20:04:45.900Z,2.22
2018-10-02T20:07:15.100Z,2.40
2018-10-02T20:09:44.266Z,2.42
2018-10-02T20:12:13.395Z,3.45
2018-10-02T20:14:42.599Z,2.60
2018-10-02T20:17:11.626Z,2.25
2018-10-02T20:19:40.572Z,2.75
2018-10-02T20:22:10.053Z,2.62
2018-10-02T20:24:39.027Z,3.15
2018-10-02T20:27:08.140Z,2.80
2018-10-02T20:29:37.048Z,2.80
2018-10-02T20:32:05.979Z,2.22
2018-10-02T20:34:35.172Z,2.55
2018-10-02T20:37:04.583Z,2.50
2018-10-02T20:39:33.509Z,3.50
2018-10-02T20:42:02.715Z,3.10
2018-10-02T20:44:41.264Z,2.45
2018-10-02T20:47:10.818Z,2.17
2018-10-02T20:49:40.146Z,2.60
2018-10-02T20:52:09.120Z,2.40
2018-10-02T20:54:38.161Z,2.40
2018-10-02T20:57:07.212Z,2.02
2018-10-02T20:59:36.571Z,1.62
2018-10-02T21:02:20.188Z,1.95
2018-10-02T21:04:49.249Z,2.10
2018-10-02T21:07:18.236Z,2.00
2018-10-02T21:09:47.559Z,2.20
2018-10-02T21:12:16.714Z,2.40
2018-10-02T21:14:45.898Z,2.10
2018-10-02T21:17:15.277Z,2.80
2018-10-02T21:19:44.396Z,2.15
2018-10-02T21:22:13.546Z,1.80
2018-10-02T21:24:42.614Z,1.67
2018-10-02T21:27:11.941Z,2.20
2018-10-02T21:29:40.908Z,2.05
2018-10-02T21:32:09.886Z,1.65
2018-10-02T21:34:39.480Z,1.95
2018-10-02T21:37:08.388Z,1.67
2018-10-02T21:39:37.468Z,2.20
2018-10-02T21:42:06.441Z,1.80
2018-10-02T21:44:35.405Z,2.20
2018-10-02T21:47:04.501Z,2.50
2018-10-02T21:49:34.614Z,2.40
2018-10-02T21:52:03.558Z,3.47
2018-10-02T21:54:32.609Z,2.58
2018-10-02T21:57:01.659Z,1.92
2018-10-02T21:59:31.001Z,2.77
2018-10-02T22:02:00.949Z,3.20
2018-10-02T22:04:30.211Z,2.85
2018-10-02T22:06:59.763Z,2.45
2018-10-02T22:09:29.829Z,2.47
2018-10-02T22:11:59.131Z,3.00
2018-10-02T22:14:29.504Z,2.62
2018-10-02T22:16:58.616Z,3.52
2018-10-02T22:19:27.918Z,3.22
2018-10-02T22:21:57.057Z,4.50
2018-10-02T22:24:26.294Z,2.95
2018-10-02T22:26:56.028Z,2.52
2018-10-02T22:29:25.044Z,2.83
2018-10-02T22:31:54.026Z,3.47
2018-10-02T22:34:23.132Z,2.85
2018-10-02T22:36:52.091Z,2.50
2018-10-02T22:39:21.097Z,3.37
2018-10-02T22:41:50.294Z,2.70
2018-10-02T22:44:19.399Z,2.37
2018-10-02T22:46:48.347Z,2.60
2018-10-02T22:49:17.230Z,2.62
2018-10-02T22:51:46.186Z,2.70
2018-10-02T22:54:15.167Z,2.10
2018-10-02T22:56:44.098Z,2.27
2018-10-02T22:59:13.208Z,2.33
2018-10-02T23:01:42.645Z,2.10
2018-10-02T23:04:11.784Z,2.33
2018-10-02T23:06:41.125Z,2.70
2018-10-02T23:09:11.933Z,1.95
2018-10-02T23:11:41.859Z,2.30
2018-10-02T23:14:11.885Z,2.67
2018-10-02T23:16:40.974Z,2.30
2018-10-02T23:19:10.281Z,2.33
2018-10-02T23:21:39.573Z,2.37
2018-10-02T23:24:08.976Z,2.45
2018-10-02T23:26:38.176Z,2.22
2018-10-02T23:29:07.267Z,2.20
2018-10-02T23:31:36.271Z,1.62
2018-10-02T23:34:05.322Z,2.30
2018-10-02T23:36:34.657Z,2.50
2018-10-02T23:39:04.319Z,2.40
2018-10-02T23:41:33.343Z,3.00
2018-10-02T23:44:02.304Z,2.35
2018-10-02T23:46:31.525Z,3.20
2018-10-02T23:49:00.941Z,3.12
2018-10-02T23:51:30.192Z,2.45
2018-10-02T23:53:59.399Z,2.42
2018-10-02T23:56:43.063Z,2.55
2018-10-02T23:59:12.460Z,2.75
